Time;durP1;ratioP1;P1;durP2;ratioP2;P2;SDS_P1;SDS_P2;PMS_P1;PMS_P2;Temp;Humidity;BMP_temperature;BMP_pressure;BME280_temperature;BME280_humidity;BME280_pressure;Samples;Min_cycle;Max_cycle;Signal;HPM_P1;HPM_P2
2022/09/12 00:00:38;;;;;;;;;;;14.00;99.90;;;;;;5075942;28;19924;-90
2022/09/12 00:03:04;;;;;;;;;;;14.00;99.90;;;;;;5044534;28;19928;-89
2022/09/12 00:05:32;;;;;;;;;;;14.00;99.90;;;;;;5061751;28;19946;-90
2022/09/12 00:07:57;;;;;;;;;;;13.90;99.90;;;;;;5063295;28;19928;-89
2022/09/12 00:10:23;;;;;;;;;;;14.00;99.90;;;;;;5046987;28;19931;-91
2022/09/12 00:12:49;;;;;;;;;;;13.90;99.90;;;;;;5076153;28;19928;-90
2022/09/12 00:15:14;;;;;;;;;;;13.90;99.90;;;;;;5075749;28;19935;-91
2022/09/12 00:17:40;;;;;;;;;;;13.90;99.90;;;;;;5060132;28;19924;-91
2022/09/12 00:20:07;;;;;;;;;;;13.90;99.90;;;;;;5058580;28;20018;-91
2022/09/12 00:22:32;;;;;;;;;;;13.80;99.90;;;;;;5076501;28;20351;-92
2022/09/12 00:24:58;;;;;;;;;;;13.80;99.90;;;;;;5057987;28;19982;-90
2022/09/12 00:27:23;;;;;;;;;;;13.80;99.90;;;;;;5074514;28;20322;-90
2022/09/12 00:29:49;;;;;;;;;;;13.70;99.90;;;;;;5058339;28;19929;-91
2022/09/12 00:32:15;;;;;;;;;;;13.70;99.90;;;;;;5041480;28;19974;-91
2022/09/12 00:34:40;;;;;;;;;;;13.70;99.90;;;;;;5041576;28;19974;-91
2022/09/12 00:37:14;;;;;;;;;;;13.80;99.90;;;;;;5057623;28;19929;-88
2022/09/12 00:39:39;;;;;;;;;;;13.70;99.90;;;;;;5057644;28;19937;-89
2022/09/12 00:42:05;;;;;;;;;;;13.60;99.90;;;;;;5056718;28;19928;-90
2022/09/12 00:44:34;;;;;;;;;;;13.60;99.90;;;;;;5056763;28;20265;-92
2022/09/12 00:47:00;;;;;;;;;;;13.70;99.90;;;;;;5058111;28;19945;-91
2022/09/12 00:49:40;;;;;;;;;;;13.60;99.90;;;;;;5059935;28;19931;-91
2022/09/12 00:52:05;;;;;;;;;;;13.50;99.90;;;;;;5086476;28;19908;-91
2022/09/12 00:54:33;;;;;;;;;;;13.50;99.90;;;;;;5098764;28;19928;-91
2022/09/12 00:57:00;;;;;;;;;;;13.50;99.90;;;;;;5064818;28;19924;-91
2022/09/12 00:59:39;;;;;;;;;;;13.50;99.90;;;;;;5081607;28;19928;-91
2022/09/12 01:02:06;;;;;;;;;;;13.40;99.90;;;;;;5061483;28;19970;-90
2022/09/12 01:04:31;;;;;;;;;;;13.50;99.90;;;;;;5043714;28;19925;-89
2022/09/12 01:06:57;;;;;;;;;;;13.50;99.90;;;;;;5062468;28;19935;-90
2022/09/12 01:09:23;;;;;;;;;;;13.50;99.90;;;;;;5042053;28;20368;-92
2022/09/12 01:11:49;;;;;;;;;;;13.40;99.90;;;;;;5056965;28;19931;-90
2022/09/12 01:14:14;;;;;;;;;;;12.20;99.90;;;;;;5057213;28;19925;-90
2022/09/12 01:16:40;;;;;;;;;;;13.60;99.90;;;;;;5063728;28;19928;-90
2022/09/12 01:19:19;;;;;;;;;;;13.40;99.90;;;;;;5061526;28;19932;-91
2022/09/12 01:21:52;;;;;;;;;;;13.40;99.90;;;;;;5074366;28;20364;-91
2022/09/12 01:24:37;;;;;;;;;;;13.50;99.90;;;;;;5066170;28;19924;-91
2022/09/12 01:27:08;;;;;;;;;;;13.40;99.90;;;;;;5058964;28;19935;-90
2022/09/12 01:29:40;;;;;;;;;;;13.40;99.90;;;;;;5058093;28;19924;-91
2022/09/12 01:32:12;;;;;;;;;;;13.40;99.90;;;;;;5073881;28;20304;-91
2022/09/12 01:34:56;;;;;;;;;;;13.30;99.90;;;;;;5073097;28;20379;-91
2022/09/12 01:37:22;;;;;;;;;;;13.30;99.90;;;;;;5072352;28;19924;-90
2022/09/12 01:40:06;;;;;;;;;;;13.30;99.90;;;;;;5073173;28;20281;-91
2022/09/12 01:42:31;;;;;;;;;;;13.30;99.90;;;;;;5074130;28;20440;-90
2022/09/12 01:44:57;;;;;;;;;;;13.30;99.90;;;;;;5057409;28;20007;-91
2022/09/12 01:47:38;;;;;;;;;;;13.30;99.90;;;;;;5074077;28;19951;-91
2022/09/12 01:50:09;;;;;;;;;;;13.20;99.90;;;;;;5057241;28;19935;-91
2022/09/12 01:52:54;;;;;;;;;;;13.20;99.90;;;;;;5040957;28;19989;-90
2022/09/12 01:55:25;;;;;;;;;;;13.20;99.90;;;;;;5073730;28;20011;-90
2022/09/12 01:58:00;;;;;;;;;;;13.20;99.90;;;;;;5072929;28;19947;-91
2022/09/12 02:00:26;;;;;;;;;;;13.10;99.90;;;;;;5056895;28;19989;-91
2022/09/12 02:02:56;;;;;;;;;;;13.10;99.90;;;;;;5056179;28;19979;-90
2022/09/12 02:05:24;;;;;;;;;;;13.30;99.90;;;;;;5056028;28;19928;-91
2022/09/12 02:07:56;;;;;;;;;;;13.10;99.90;;;;;;5058376;28;19935;-91
2022/09/12 02:10:25;;;;;;;;;;;13.10;99.90;;;;;;5045644;28;19955;-91
2022/09/12 02:12:55;;;;;;;;;;;13.40;99.90;;;;;;5065216;28;19933;-91
2022/09/12 02:15:25;;;;;;;;;;;13.10;99.90;;;;;;5066589;28;19955;-90
2022/09/12 02:17:51;;;;;;;;;;;13.60;99.90;;;;;;5086034;28;19980;-91
2022/09/12 02:20:20;;;;;;;;;;;13.10;99.90;;;;;;5070086;28;20368;-91
2022/09/12 02:22:47;;;;;;;;;;;13.00;99.90;;;;;;5069378;28;19924;-91
2022/09/12 02:25:13;;;;;;;;;;;13.20;99.90;;;;;;5088826;28;19935;-91
2022/09/12 02:27:41;;;;;;;;;;;13.30;99.90;;;;;;5072587;28;19932;-91
2022/09/12 02:30:07;;;;;;;;;;;13.20;99.90;;;;;;5072630;28;19984;-92
2022/09/12 02:32:33;;;;;;;;;;;13.10;99.90;;;;;;5067963;28;20422;-90
2022/09/12 02:35:02;;;;;;;;;;;13.20;99.90;;;;;;5083146;28;19928;-88
2022/09/12 02:37:33;;;;;;;;;;;13.20;99.90;;;;;;5047028;28;19947;-90
2022/09/12 02:39:59;;;;;;;;;;;13.10;99.90;;;;;;5077471;28;19928;-91
2022/09/12 02:42:27;;;;;;;;;;;13.10;99.90;;;;;;5058789;28;19928;-91
2022/09/12 02:44:55;;;;;;;;;;;13.20;99.90;;;;;;5058351;28;20355;-91
2022/09/12 02:47:38;;;;;;;;;;;13.20;99.90;;;;;;5078115;28;19995;-90
2022/09/12 02:50:04;;;;;;;;;;;13.30;99.90;;;;;;5066088;28;19928;-90
2022/09/12 02:52:30;;;;;;;;;;;13.30;99.90;;;;;;5050400;28;20015;-92
2022/09/12 02:54:56;;;;;;;;;;;13.30;99.90;;;;;;5067457;28;19968;-89
2022/09/12 02:57:24;;;;;;;;;;;13.30;99.90;;;;;;5051182;28;20408;-92
2022/09/12 02:59:51;;;;;;;;;;;13.30;99.90;;;;;;5066292;28;19933;-91
2022/09/12 03:02:36;;;;;;;;;;;13.30;99.90;;;;;;5052737;28;19928;-90
2022/09/12 03:05:07;;;;;;;;;;;13.30;99.90;;;;;;5065379;28;20155;-90
2022/09/12 03:07:51;;;;;;;;;;;13.30;99.90;;;;;;5060304;28;19924;-91
2022/09/12 03:10:36;;;;;;;;;;;13.40;99.90;;;;;;5073631;28;19924;-91
2022/09/12 03:13:14;;;;;;;;;;;13.30;99.90;;;;;;5055035;28;20050;-91
2022/09/12 03:15:47;;;;;;;;;;;13.30;99.90;;;;;;5055888;28;20039;-88
2022/09/12 03:18:18;;;;;;;;;;;13.20;99.90;;;;;;5055420;28;19989;-91
2022/09/12 03:21:01;;;;;;;;;;;13.20;99.90;;;;;;5073308;28;19988;-90
2022/09/12 03:23:31;;;;;;;;;;;13.20;99.90;;;;;;5055622;28;20298;-92
2022/09/12 03:26:05;;;;;;;;;;;13.20;99.90;;;;;;5055138;28;19974;-89
2022/09/12 03:28:30;;;;;;;;;;;13.20;99.90;;;;;;5038386;28;19924;-89
2022/09/12 03:30:56;;;;;;;;;;;13.20;99.90;;;;;;5055070;28;19991;-91
2022/09/12 03:33:22;;;;;;;;;;;13.20;99.90;;;;;;5054457;28;19925;-91
2022/09/12 03:35:48;;;;;;;;;;;13.20;99.90;;;;;;5075186;28;19947;-92
2022/09/12 03:38:14;;;;;;;;;;;13.30;99.90;;;;;;5042048;28;19924;-90
2022/09/12 03:40:39;;;;;;;;;;;13.20;99.90;;;;;;5058803;28;20426;-91
2022/09/12 03:43:05;;;;;;;;;;;13.20;99.90;;;;;;5058114;28;19990;-91
2022/09/12 03:45:31;;;;;;;;;;;13.20;99.90;;;;;;5041660;28;19924;-91
2022/09/12 03:47:57;;;;;;;;;;;13.20;99.90;;;;;;5058351;28;20023;-92
2022/09/12 03:50:22;;;;;;;;;;;13.20;99.90;;;;;;5058085;28;19987;-91
2022/09/12 03:52:48;;;;;;;;;;;13.20;99.90;;;;;;5058514;28;19931;-92
2022/09/12 03:55:16;;;;;;;;;;;13.10;99.90;;;;;;5057851;28;19924;-90
2022/09/12 03:57:42;;;;;;;;;;;13.20;99.90;;;;;;5061672;28;20015;-91
2022/09/12 04:00:08;;;;;;;;;;;13.20;99.90;;;;;;5058816;28;20012;-92
2022/09/12 04:02:33;;;;;;;;;;;13.30;99.90;;;;;;5057843;28;19932;-91
2022/09/12 04:04:59;;;;;;;;;;;13.10;99.90;;;;;;5075438;28;19928;-90
2022/09/12 04:07:25;;;;;;;;;;;13.20;99.90;;;;;;5075850;28;20015;-90
2022/09/12 04:09:52;;;;;;;;;;;13.10;99.90;;;;;;5059155;28;20022;-91
2022/09/12 04:12:18;;;;;;;;;;;13.60;99.90;;;;;;5058787;28;19979;-91
2022/09/12 04:14:43;;;;;;;;;;;13.10;99.90;;;;;;5059069;28;19929;-91
2022/09/12 04:17:09;;;;;;;;;;;13.10;99.90;;;;;;5059538;28;20066;-91
2022/09/12 04:19:35;;;;;;;;;;;13.10;99.90;;;;;;5063422;28;19925;-90
2022/09/12 04:22:00;;;;;;;;;;;13.10;99.90;;;;;;5069533;28;19932;-88
2022/09/12 04:24:26;;;;;;;;;;;13.10;99.90;;;;;;5058081;28;19928;-91
2022/09/12 04:26:52;;;;;;;;;;;13.10;99.90;;;;;;5088423;28;19936;-90
2022/09/12 04:29:18;;;;;;;;;;;13.00;99.90;;;;;;5054581;28;19924;-90
2022/09/12 04:31:46;;;;;;;;;;;13.10;99.90;;;;;;5082672;28;20372;-89
2022/09/12 04:34:12;;;;;;;;;;;13.10;99.90;;;;;;5044883;28;20058;-89
2022/09/12 04:36:37;;;;;;;;;;;13.30;99.90;;;;;;5075238;28;20011;-90
2022/09/12 04:39:03;;;;;;;;;;;12.60;99.90;;;;;;5057699;28;19929;-90
2022/09/12 04:41:29;;;;;;;;;;;13.00;99.90;;;;;;5040124;28;19925;-91
2022/09/12 04:44:01;;;;;;;;;;;13.10;99.90;;;;;;5040765;28;20023;-91
2022/09/12 04:46:27;;;;;;;;;;;12.90;99.90;;;;;;5073825;28;19924;-91
2022/09/12 04:48:52;;;;;;;;;;;13.00;99.90;;;;;;5074357;28;19935;-92
2022/09/12 04:51:20;;;;;;;;;;;13.00;99.90;;;;;;5057976;28;20019;-90
2022/09/12 04:53:47;;;;;;;;;;;13.00;99.90;;;;;;5056840;28;19924;-90
2022/09/12 04:56:15;;;;;;;;;;;13.00;99.90;;;;;;5057683;28;19936;-92
2022/09/12 04:58:40;;;;;;;;;;;13.00;99.90;;;;;;5057065;28;19990;-90
2022/09/12 05:01:10;;;;;;;;;;;13.00;99.90;;;;;;5056728;28;20342;-91
2022/09/12 05:03:39;;;;;;;;;;;11.30;99.90;;;;;;5057523;28;19935;-90
2022/09/12 05:06:05;;;;;;;;;;;13.10;99.90;;;;;;5057576;28;19947;-92
2022/09/12 05:08:31;;;;;;;;;;;13.30;99.90;;;;;;5040826;28;19928;-91
2022/09/12 05:11:03;;;;;;;;;;;13.10;99.90;;;;;;5040908;28;19928;-91
2022/09/12 05:13:29;;;;;;;;;;;13.10;99.90;;;;;;5073451;28;20372;-90
2022/09/12 05:15:55;;;;;;;;;;;13.20;99.90;;;;;;5057753;28;19969;-91
2022/09/12 05:18:25;;;;;;;;;;;14.30;99.90;;;;;;5057394;28;19925;-90
2022/09/12 05:20:53;;;;;;;;;;;13.70;99.90;;;;;;5058082;28;20311;-90
2022/09/12 05:23:24;;;;;;;;;;;13.50;99.90;;;;;;5075288;28;19976;-91
2022/09/12 05:25:50;;;;;;;;;;;13.80;99.90;;;;;;5057620;28;19935;-91
2022/09/12 05:28:16;;;;;;;;;;;13.70;99.90;;;;;;5041689;28;19924;-92
2022/09/12 05:30:42;;;;;;;;;;;13.90;99.90;;;;;;5075662;28;20292;-91
2022/09/12 05:33:07;;;;;;;;;;;14.20;99.90;;;;;;5042034;28;19978;-92
2022/09/12 05:35:33;;;;;;;;;;;14.20;99.90;;;;;;5058016;28;20003;-91
2022/09/12 05:37:58;;;;;;;;;;;14.30;99.90;;;;;;5057645;28;19935;-90
2022/09/12 05:40:24;;;;;;;;;;;14.00;99.90;;;;;;5058067;28;19932;-91
2022/09/12 05:42:50;;;;;;;;;;;14.70;99.90;;;;;;5059620;28;19932;-90
2022/09/12 05:45:15;;;;;;;;;;;15.00;99.90;;;;;;5043807;28;19925;-91
2022/09/12 05:47:47;;;;;;;;;;;15.10;99.90;;;;;;5058089;28;19925;-93
2022/09/12 05:50:12;;;;;;;;;;;15.10;99.90;;;;;;5045655;28;19925;-92
2022/09/12 05:52:41;;;;;;;;;;;15.80;99.90;;;;;;5059916;28;19924;-91
2022/09/12 05:55:06;;;;;;;;;;;16.20;99.90;;;;;;5043721;28;19935;-89
2022/09/12 05:57:32;;;;;;;;;;;16.40;99.90;;;;;;5039048;28;19924;-90
2022/09/12 05:59:58;;;;;;;;;;;16.60;99.90;;;;;;5041105;28;19928;-91
2022/09/12 06:02:24;;;;;;;;;;;16.70;99.90;;;;;;5044324;28;19984;-91
2022/09/12 06:04:49;;;;;;;;;;;16.50;99.90;;;;;;5044744;28;20263;-90
2022/09/12 06:07:15;;;;;;;;;;;16.40;99.90;;;;;;5062086;28;20002;-92
2022/09/12 06:09:41;;;;;;;;;;;17.10;99.90;;;;;;5042506;28;19925;-94
2022/09/12 06:15:24;;;;;;;;;;;17.60;99.90;;;;;;5059078;28;19951;-87
2022/09/12 06:17:52;;;;;;;;;;;15.80;99.90;;;;;;5040295;28;20391;-92
2022/09/12 06:20:21;;;;;;;;;;;15.50;99.90;;;;;;5074217;28;19935;-93
2022/09/12 06:22:59;;;;;;;;;;;15.70;99.90;;;;;;5040317;28;19932;-91
2022/09/12 06:25:28;;;;;;;;;;;15.50;99.90;;;;;;5040541;28;19928;-93
2022/09/12 06:27:56;;;;;;;;;;;13.80;99.90;;;;;;5057076;28;19928;-93
2022/09/12 06:30:22;;;;;;;;;;;15.50;99.90;;;;;;5039362;28;20009;-91
2022/09/12 06:32:53;;;;;;;;;;;15.70;99.90;;;;;;5039701;28;19964;-90
2022/09/12 06:35:20;;;;;;;;;;;15.70;99.90;;;;;;5041325;28;20003;-89
2022/09/12 06:37:53;;;;;;;;;;;15.50;99.90;;;;;;5072079;28;20054;-91
2022/09/12 06:40:21;;;;;;;;;;;15.50;99.90;;;;;;5039834;28;19924;-90
2022/09/12 06:42:47;;;;;;;;;;;15.50;99.90;;;;;;5035882;28;19947;-91
2022/09/12 06:45:15;;;;;;;;;;;16.20;99.90;;;;;;5059822;28;20314;-93
2022/09/12 06:47:41;;;;;;;;;;;15.60;99.90;;;;;;5041520;28;19924;-91
2022/09/12 06:50:07;;;;;;;;;;;15.80;99.90;;;;;;5038885;28;20314;-91
2022/09/12 06:52:32;;;;;;;;;;;15.70;99.90;;;;;;5056323;28;20381;-91
2022/09/12 06:54:58;;;;;;;;;;;15.70;99.90;;;;;;5073504;28;19928;-90
2022/09/12 06:57:26;;;;;;;;;;;15.70;99.90;;;;;;5074026;28;19924;-90
2022/09/12 06:59:52;;;;;;;;;;;15.70;99.90;;;;;;5040570;28;19996;-89
2022/09/12 07:02:18;;;;;;;;;;;15.70;99.90;;;;;;5072484;28;20103;-90
2022/09/12 07:04:46;;;;;;;;;;;15.70;99.90;;;;;;5054521;28;19975;-90
2022/09/12 07:07:13;;;;;;;;;;;15.80;99.90;;;;;;5056791;28;19924;-89
2022/09/12 07:09:39;;;;;;;;;;;15.70;99.90;;;;;;5053859;28;20015;-91
2022/09/12 07:12:05;;;;;;;;;;;15.70;99.90;;;;;;5038361;28;20011;-90
2022/09/12 07:14:30;;;;;;;;;;;15.80;99.90;;;;;;5054327;28;19934;-89
2022/09/12 07:16:56;;;;;;;;;;;15.80;99.90;;;;;;5054505;28;19928;-90
2022/09/12 07:19:23;;;;;;;;;;;15.80;99.90;;;;;;5070937;28;20391;-89
2022/09/12 07:21:51;;;;;;;;;;;15.80;99.90;;;;;;5054702;28;19929;-91
2022/09/12 07:24:17;;;;;;;;;;;15.80;99.90;;;;;;5061836;28;19950;-90
2022/09/12 07:26:42;;;;;;;;;;;15.90;99.90;;;;;;5042291;28;20380;-89
2022/09/12 07:29:11;;;;;;;;;;;15.80;99.90;;;;;;5072317;28;19928;-90
2022/09/12 07:31:38;;;;;;;;;;;15.80;99.90;;;;;;5041058;28;19929;-92
2022/09/12 07:34:05;;;;;;;;;;;15.90;99.90;;;;;;5074479;28;20710;-90
2022/09/12 07:36:30;;;;;;;;;;;15.90;99.90;;;;;;5038506;28;19994;-90
2022/09/12 07:38:56;;;;;;;;;;;16.10;99.90;;;;;;5039245;28;20364;-92
2022/09/12 07:41:23;;;;;;;;;;;16.10;99.90;;;;;;5039434;28;19928;-91
2022/09/12 07:43:53;;;;;;;;;;;16.20;99.90;;;;;;5040374;28;19928;-93
2022/09/12 07:46:18;;;;;;;;;;;16.50;99.90;;;;;;5060171;28;19978;-93
2022/09/12 07:48:46;;;;;;;;;;;15.80;99.90;;;;;;5061482;28;19924;-91
2022/09/12 07:51:12;;;;;;;;;;;16.70;99.90;;;;;;5070892;28;19919;-91
2022/09/12 07:53:38;;;;;;;;;;;16.90;99.90;;;;;;5062326;28;19976;-92
2022/09/12 07:56:04;;;;;;;;;;;17.20;99.90;;;;;;5065392;28;20768;-91
2022/09/12 07:58:30;;;;;;;;;;;17.30;99.90;;;;;;5061216;28;19924;-92
2022/09/12 08:01:07;;;;;;;;;;;17.60;99.90;;;;;;5071701;28;19970;-91
2022/09/12 08:03:35;;;;;;;;;;;18.00;99.90;;;;;;5045765;28;19928;-91
2022/09/12 08:06:12;;;;;;;;;;;17.80;99.90;;;;;;5049494;28;19924;-92
2022/09/12 08:08:38;;;;;;;;;;;18.00;99.90;;;;;;5039175;28;19960;-91
2022/09/12 08:11:05;;;;;;;;;;;18.00;99.90;;;;;;5054547;28;19971;-91
2022/09/12 08:13:31;;;;;;;;;;;18.00;99.90;;;;;;5071414;28;19931;-90
2022/09/12 08:15:58;;;;;;;;;;;17.80;99.90;;;;;;5071323;28;19960;-89
2022/09/12 08:18:27;;;;;;;;;;;17.60;99.90;;;;;;5069060;28;19931;-90
2022/09/12 08:20:59;;;;;;;;;;;17.80;99.90;;;;;;5058519;28;19931;-89
2022/09/12 08:23:26;;;;;;;;;;;17.50;99.90;;;;;;5094551;28;19928;-90
2022/09/12 08:25:54;;;;;;;;;;;17.60;99.90;;;;;;5055401;28;19946;-89
2022/09/12 08:28:19;;;;;;;;;;;17.70;99.90;;;;;;5059136;28;20461;-90
2022/09/12 08:30:45;;;;;;;;;;;17.60;99.90;;;;;;5057978;28;20179;-89
2022/09/12 08:33:11;;;;;;;;;;;17.70;99.90;;;;;;5073554;28;19936;-88
2022/09/12 08:35:36;;;;;;;;;;;16.30;99.90;;;;;;5041771;28;19977;-89
2022/09/12 08:38:04;;;;;;;;;;;18.00;99.90;;;;;;5040724;28;20292;-91
2022/09/12 08:40:30;;;;;;;;;;;18.20;99.90;;;;;;5058460;28;19929;-93
2022/09/12 08:43:05;;;;;;;;;;;18.30;99.90;;;;;;5055298;28;20262;-89
2022/09/12 08:45:32;;;;;;;;;;;18.30;99.90;;;;;;5043883;28;19932;-86
2022/09/12 08:48:00;;;;;;;;;;;17.80;99.90;;;;;;5066262;28;19932;-96
2022/09/12 08:50:26;;;;;;;;;;;18.50;99.90;;;;;;5050624;28;19925;-94
2022/09/12 08:53:02;;;;;;;;;;;;;;;;;;;;;
2022/09/12 08:56:03;;;;;;;;;;;;;;;;;;;;;
2022/09/12 08:58:30;;;;;;;;;;;18.90;99.90;;;;;;5083268;28;19935;-94
2022/09/12 09:00:58;;;;;;;;;;;17.10;99.90;;;;;;5048665;28;19917;-92
2022/09/12 09:03:39;;;;;;;;;;;18.40;99.90;;;;;;5073405;28;19925;-94
2022/09/12 09:06:11;;;;;;;;;;;17.50;99.90;;;;;;5079220;28;20407;-93
2022/09/12 09:08:44;;;;;;;;;;;18.40;99.90;;;;;;5059317;28;19931;-95
2022/09/12 09:11:19;;;;;;;;;;;18.40;99.90;;;;;;5074303;28;19935;-92
2022/09/12 09:16:37;;;;;;;;;;;17.80;99.90;;;;;;5074204;28;20019;-94
2022/09/12 09:19:23;;;;;;;;;;;19.10;99.90;;;;;;5054541;28;20378;-95
2022/09/12 09:21:49;;;;;;;;;;;18.80;99.90;;;;;;5057187;28;19924;-94
2022/09/12 09:24:18;;;;;;;;;;;19.10;99.90;;;;;;5074797;28;19931;-95
2022/09/12 09:27:07;;;;;;;;;;;19.20;99.90;;;;;;5050212;28;19924;-93
2022/09/12 09:29:43;;;;;;;;;;;19.90;99.90;;;;;;5064022;28;20042;-92
2022/09/12 09:32:18;;;;;;;;;;;20.20;99.90;;;;;;5040155;28;19947;-91
2022/09/12 09:34:44;;;;;;;;;;;20.50;99.90;;;;;;5043472;28;20063;-91
2022/09/12 09:37:13;;;;;;;;;;;20.40;99.90;;;;;;5065899;28;20334;-92
2022/09/12 09:39:57;;;;;;;;;;;20.60;99.90;;;;;;5058158;28;19935;-92
2022/09/12 09:42:26;;;;;;;;;;;21.60;99.90;;;;;;5058385;28;19929;-94
2022/09/12 09:44:59;;;;;;;;;;;21.80;99.90;;;;;;5042299;28;20389;-92
2022/09/12 09:47:27;;;;;;;;;;;22.00;99.90;;;;;;5041054;28;19925;-89
2022/09/12 09:49:53;;;;;;;;;;;22.50;99.90;;;;;;5057196;28;19932;-94
2022/09/12 09:52:20;;;;;;;;;;;22.30;99.90;;;;;;5060268;28;20101;-94
2022/09/12 09:54:52;;;;;;;;;;;23.00;99.90;;;;;;5040659;28;19928;-94
2022/09/12 09:57:33;;;;;;;;;;;22.90;99.90;;;;;;5040207;28;20023;-92
2022/09/12 09:59:58;;;;;;;;;;;23.60;99.90;;;;;;5072748;28;19924;-91
2022/09/12 10:02:26;;;;;;;;;;;23.00;99.90;;;;;;5040927;28;19931;-92
2022/09/12 10:04:53;;;;;;;;;;;23.10;99.90;;;;;;5056390;28;19929;-92
2022/09/12 10:07:20;;;;;;;;;;;22.90;99.90;;;;;;5055775;28;19931;-89
2022/09/12 10:10:09;;;;;;;;;;;22.60;99.90;;;;;;5057360;28;19930;-92
2022/09/12 10:12:35;;;;;;;;;;;22.30;99.90;;;;;;5049213;28;19950;-94
2022/09/12 10:15:03;;;;;;;;;;;21.40;99.90;;;;;;5054268;28;19972;-93
2022/09/12 10:17:31;;;;;;;;;;;20.80;99.90;;;;;;5041153;28;19928;-94
2022/09/12 10:19:59;;;;;;;;;;;22.00;99.90;;;;;;5022246;28;19975;-94
2022/09/12 10:22:30;;;;;;;;;;;22.20;99.90;;;;;;5022049;28;19928;-94
2022/09/12 10:24:58;;;;;;;;;;;22.60;99.90;;;;;;5055424;28;19925;-92
2022/09/12 10:27:24;;;;;;;;;;;22.30;99.90;;;;;;5055755;28;19928;-90
2022/09/12 10:29:53;;;;;;;;;;;23.20;99.90;;;;;;5088304;28;20003;-93
2022/09/12 10:32:31;;;;;;;;;;;23.20;99.90;;;;;;5075545;28;19928;-93
2022/09/12 10:34:58;;;;;;;;;;;23.00;99.90;;;;;;5063296;28;19924;-93
2022/09/12 10:37:33;;;;;;;;;;;23.20;99.90;;;;;;5081902;28;19928;-91
2022/09/12 10:40:02;;;;;;;;;;;23.10;99.90;;;;;;5074711;28;19966;-93
2022/09/12 10:42:48;;;;;;;;;;;23.60;99.90;;;;;;5039367;28;20399;-93
2022/09/12 10:45:17;;;;;;;;;;;23.60;99.90;;;;;;5055365;28;20434;-94
2022/09/12 10:47:43;;;;;;;;;;;23.30;99.90;;;;;;5073137;28;19968;-93
2022/09/12 10:50:22;;;;;;;;;;;23.40;99.90;;;;;;5056771;28;20350;-93
2022/09/12 10:52:47;;;;;;;;;;;23.50;99.90;;;;;;5057128;28;20368;-94
2022/09/12 10:55:13;;;;;;;;;;;23.50;99.90;;;;;;5073406;28;19979;-94
2022/09/12 10:57:39;;;;;;;;;;;23.10;99.90;;;;;;5038009;28;19974;-93
2022/09/12 11:00:26;;;;;;;;;;;23.00;99.90;;;;;;5056954;28;19928;-94
2022/09/12 11:03:09;;;;;;;;;;;22.80;99.90;;;;;;5056358;28;19928;-93
2022/09/12 11:05:52;;;;;;;;;;;23.30;99.90;;;;;;5073592;28;20118;-92
2022/09/12 11:08:24;;;;;;;;;;;23.00;99.90;;;;;;5039361;28;19925;-91
2022/09/12 11:10:59;;;;;;;;;;;22.80;99.90;;;;;;5055360;28;20005;-92
2022/09/12 11:13:45;;;;;;;;;;;22.60;99.90;;;;;;5054757;28;19936;-92
2022/09/12 11:16:11;;;;;;;;;;;22.60;99.90;;;;;;5056406;28;19924;-93
2022/09/12 11:18:44;;;;;;;;;;;21.00;99.90;;;;;;5072765;28;19950;-92
2022/09/12 11:21:24;;;;;;;;;;;22.30;99.90;;;;;;5055487;28;20288;-90
2022/09/12 11:23:50;;;;;;;;;;;22.50;99.90;;;;;;5051335;28;19984;-90
2022/09/12 11:26:22;;;;;;;;;;;22.40;99.90;;;;;;5067402;28;19971;-90
2022/09/12 11:28:53;;;;;;;;;;;22.40;99.90;;;;;;5067827;28;19908;-90
2022/09/12 11:31:41;;;;;;;;;;;22.50;99.90;;;;;;5074668;28;19988;-92
2022/09/12 11:34:08;;;;;;;;;;;23.00;99.90;;;;;;5076261;28;19909;-93
2022/09/12 11:37:07;;;;;;;;;;;23.00;99.90;;;;;;5091679;28;19908;-94
2022/09/12 11:39:37;;;;;;;;;;;22.60;99.90;;;;;;5060697;28;19929;-91
2022/09/12 11:42:08;;;;;;;;;;;22.60;99.90;;;;;;5039715;28;19928;-91
2022/09/12 11:44:47;;;;;;;;;;;21.80;99.90;;;;;;5054304;28;19949;-91
2022/09/12 11:47:13;;;;;;;;;;;22.80;99.90;;;;;;5078961;28;19988;-91
2022/09/12 11:49:40;;;;;;;;;;;21.60;99.90;;;;;;5056350;28;19998;-91
2022/09/12 11:52:10;;;;;;;;;;;22.70;99.90;;;;;;5055167;28;20019;-88
2022/09/12 11:54:35;;;;;;;;;;;22.90;99.90;;;;;;5038590;28;20356;-88
2022/09/12 11:57:06;;;;;;;;;;;22.70;99.90;;;;;;5077103;28;19932;-91
2022/09/12 11:59:45;;;;;;;;;;;23.50;99.90;;;;;;5079171;28;19925;-89
2022/09/12 12:02:24;;;;;;;;;;;22.80;99.90;;;;;;5044588;28;20269;-89
2022/09/12 12:04:57;;;;;;;;;;;22.80;99.90;;;;;;5079103;28;19939;-91
2022/09/12 12:07:22;;;;;;;;;;;23.10;99.90;;;;;;5061299;28;19935;-90
2022/09/12 12:09:49;;;;;;;;;;;23.00;99.90;;;;;;5080109;28;19924;-89
2022/09/12 12:12:16;;;;;;;;;;;23.00;99.90;;;;;;5061288;28;19935;-91
2022/09/12 12:14:42;;;;;;;;;;;23.10;99.90;;;;;;5058219;28;19932;-88
2022/09/12 12:17:12;;;;;;;;;;;23.30;99.90;;;;;;5041831;28;19928;-90
2022/09/12 12:19:37;;;;;;;;;;;23.30;99.90;;;;;;5058692;28;19972;-90
2022/09/12 12:22:17;;;;;;;;;;;23.40;99.90;;;;;;5059155;28;20235;-90
2022/09/12 12:24:53;;;;;;;;;;;23.40;99.90;;;;;;5075759;28;19976;-89
2022/09/12 12:27:22;;;;;;;;;;;23.40;99.90;;;;;;5041699;28;19924;-89
2022/09/12 12:29:48;;;;;;;;;;;23.60;99.90;;;;;;5041695;28;20450;-90
2022/09/12 12:32:18;;;;;;;;;;;23.60;99.90;;;;;;5076368;28;19928;-90
2022/09/12 12:34:44;;;;;;;;;;;23.60;99.90;;;;;;5058027;28;20296;-90
2022/09/12 12:37:19;;;;;;;;;;;23.60;99.90;;;;;;5041105;28;19939;-91
2022/09/12 12:39:59;;;;;;;;;;;23.70;99.90;;;;;;5070903;28;20293;-89
2022/09/12 12:42:31;;;;;;;;;;;23.70;99.90;;;;;;5037618;28;20356;-89
2022/09/12 12:44:57;;;;;;;;;;;23.80;99.90;;;;;;5038176;28;19924;-88
2022/09/12 12:47:32;;;;;;;;;;;23.90;99.90;;;;;;5057043;28;20342;-91
2022/09/12 12:50:00;;;;;;;;;;;23.60;99.90;;;;;;5090563;28;19930;-90
2022/09/12 12:52:27;;;;;;;;;;;23.80;99.90;;;;;;5090533;28;19925;-91
2022/09/12 12:54:54;;;;;;;;;;;23.60;99.90;;;;;;5058428;28;20334;-89
2022/09/12 12:57:38;;;;;;;;;;;23.60;99.90;;;;;;5057472;28;20409;-92
2022/09/12 13:00:08;;;;;;;;;;;23.60;99.90;;;;;;5073746;28;20364;-91
2022/09/12 13:02:48;;;;;;;;;;;23.60;99.90;;;;;;5079751;28;20383;-89
2022/09/12 13:05:23;;;;;;;;;;;23.70;99.90;;;;;;5092481;28;19925;-92
2022/09/12 13:07:53;;;;;;;;;;;23.70;99.90;;;;;;5056429;28;19924;-89
2022/09/12 13:10:23;;;;;;;;;;;23.80;99.90;;;;;;5091007;28;19924;-89
2022/09/12 13:12:48;;;;;;;;;;;23.80;99.90;;;;;;5086066;28;19932;-93
2022/09/12 13:15:33;;;;;;;;;;;23.70;99.90;;;;;;5057373;28;19925;-94
2022/09/12 13:17:59;;;;;;;;;;;23.70;99.90;;;;;;5052234;28;19925;-92
2022/09/12 13:20:31;;;;;;;;;;;23.60;99.90;;;;;;5066378;28;19935;-91
2022/09/12 13:22:57;;;;;;;;;;;23.50;99.90;;;;;;5047555;28;19928;-93
2022/09/12 13:25:32;;;;;;;;;;;23.40;99.90;;;;;;5056361;28;19925;-91
2022/09/12 13:27:58;;;;;;;;;;;23.50;99.90;;;;;;5054944;28;20288;-93
2022/09/12 13:30:26;;;;;;;;;;;22.80;99.90;;;;;;5065075;28;19931;-92
2022/09/12 13:32:52;;;;;;;;;;;23.70;99.90;;;;;;5066725;28;19936;-92
2022/09/12 13:35:20;;;;;;;;;;;23.60;99.90;;;;;;5063256;28;19925;-94
2022/09/12 13:37:57;;;;;;;;;;;23.30;99.90;;;;;;5074116;28;20913;-93
2022/09/12 13:40:23;;;;;;;;;;;23.70;99.90;;;;;;5064933;28;19935;-91
2022/09/12 13:42:51;;;;;;;;;;;23.70;99.90;;;;;;5075782;28;20416;-94
2022/09/12 13:45:20;;;;;;;;;;;23.60;99.90;;;;;;5057161;28;19974;-93
2022/09/12 13:47:55;;;;;;;;;;;23.50;99.90;;;;;;5056374;28;19932;-93
2022/09/12 13:50:25;;;;;;;;;;;23.50;99.90;;;;;;5057022;28;19932;-93
2022/09/12 13:52:52;;;;;;;;;;;23.60;99.90;;;;;;5073492;28;19985;-92
2022/09/12 13:55:30;;;;;;;;;;;24.00;99.90;;;;;;5039489;28;20389;-91
2022/09/12 13:58:00;;;;;;;;;;;23.90;99.90;;;;;;5037809;28;19929;-92
2022/09/12 14:00:27;;;;;;;;;;;23.90;99.90;;;;;;5040128;28;19982;-93
2022/09/12 14:05:06;;;;;;;;;;;24.00;99.90;;;;;;5056481;28;19935;-91
2022/09/12 14:05:40;;;;;;;;;;;24.20;99.90;;;;;;5058880;28;19969;-91
2022/09/12 14:08:07;;;;;;;;;;;24.70;99.90;;;;;;5059049;28;20276;-93
2022/09/12 14:10:36;;;;;;;;;;;23.90;99.90;;;;;;5057781;28;19928;-92
2022/09/12 14:13:12;;;;;;;;;;;24.00;99.90;;;;;;5039144;28;20371;-91
2022/09/12 14:15:37;;;;;;;;;;;23.00;99.90;;;;;;5038693;28;19928;-91
2022/09/12 14:18:04;;;;;;;;;;;24.20;99.90;;;;;;5039471;28;19936;-91
2022/09/12 14:20:35;;;;;;;;;;;23.00;99.90;;;;;;5038410;28;19924;-91
2022/09/12 14:23:01;;;;;;;;;;;24.00;99.90;;;;;;5071622;28;20031;-92
2022/09/12 14:25:28;;;;;;;;;;;23.80;99.90;;;;;;5059378;28;19936;-91
2022/09/12 14:28:02;;;;;;;;;;;23.90;99.90;;;;;;5058714;28;19928;-92
2022/09/12 14:30:33;;;;;;;;;;;23.90;99.90;;;;;;5039386;28;19935;-92
2022/09/12 14:33:08;;;;;;;;;;;24.00;99.90;;;;;;5057208;28;20004;-92
2022/09/12 14:35:34;;;;;;;;;;;23.80;99.90;;;;;;5056935;28;19998;-91
2022/09/12 14:38:15;;;;;;;;;;;23.70;99.90;;;;;;5060181;28;19929;-92